sensor_id;sensor_type;location;lat;lon;timestamp;pressure;altitude;pressure_sealevel;temperature;humidity
24825;BME280;12910;57.690;11.974;2022-11-13T00:01:25;102291.53;;;11.81;100.00
24825;BME280;12910;57.690;11.974;2022-11-13T00:03:50;102277.72;;;11.77;100.00
24825;BME280;12910;57.690;11.974;2022-11-13T00:06:17;102283.88;;;11.82;100.00
24825;BME280;12910;57.690;11.974;2022-11-13T00:08:43;102278.56;;;11.78;100.00
24825;BME280;12910;57.690;11.974;2022-11-13T00:11:11;102281.19;;;11.79;100.00
24825;BME280;12910;57.690;11.974;2022-11-13T00:13:39;102281.09;;;11.76;100.00
24825;BME280;12910;57.690;11.974;2022-11-13T00:16:07;102270.69;;;11.73;100.00
24825;BME280;12910;57.690;11.974;2022-11-13T00:18:34;102272.56;;;11.77;100.00
24825;BME280;12910;57.690;11.974;2022-11-13T00:21:10;102268.28;;;11.78;100.00
24825;BME280;12910;57.690;11.974;2022-11-13T00:23:37;102280.28;;;11.77;100.00
24825;BME280;12910;57.690;11.974;2022-11-13T00:26:07;102278.53;;;11.76;100.00
24825;BME280;12910;57.690;11.974;2022-11-13T00:28:33;102281.94;;;11.77;100.00
24825;BME280;12910;57.690;11.974;2022-11-13T00:31:00;102281.09;;;11.76;100.00
24825;BME280;12910;57.690;11.974;2022-11-13T00:33:26;102276.78;;;11.75;100.00
24825;BME280;12910;57.690;11.974;2022-11-13T00:35:51;102278.41;;;11.73;100.00
24825;BME280;12910;57.690;11.974;2022-11-13T00:38:17;102272.28;;;11.69;100.00
24825;BME280;12910;57.690;11.974;2022-11-13T00:40:42;102290.47;;;11.76;100.00
24825;BME280;12910;57.690;11.974;2022-11-13T00:43:07;102283.41;;;11.70;100.00
24825;BME280;12910;57.690;11.974;2022-11-13T00:45:33;102287.91;;;11.76;100.00
24825;BME280;12910;57.690;11.974;2022-11-13T00:47:58;102291.38;;;11.76;100.00
24825;BME280;12910;57.690;11.974;2022-11-13T00:50:23;102289.53;;;11.74;100.00
24825;BME280;12910;57.690;11.974;2022-11-13T00:52:49;102289.63;;;11.75;100.00
24825;BME280;12910;57.690;11.974;2022-11-13T00:55:14;102280.03;;;11.71;100.00
24825;BME280;12910;57.690;11.974;2022-11-13T00:57:40;102282.59;;;11.71;100.00
24825;BME280;12910;57.690;11.974;2022-11-13T01:00:06;102288.03;;;11.79;100.00
24825;BME280;12910;57.690;11.974;2022-11-13T01:02:31;102283.75;;;11.79;100.00
24825;BME280;12910;57.690;11.974;2022-11-13T01:04:56;102289.72;;;11.78;100.00
24825;BME280;12910;57.690;11.974;2022-11-13T01:07:22;102298.31;;;11.79;100.00
24825;BME280;12910;57.690;11.974;2022-11-13T01:09:50;102283.75;;;11.79;100.00
24825;BME280;12910;57.690;11.974;2022-11-13T01:12:16;102295.69;;;11.77;100.00
24825;BME280;12910;57.690;11.974;2022-11-13T01:14:41;102294.81;;;11.77;100.00
24825;BME280;12910;57.690;11.974;2022-11-13T01:17:07;102300.94;;;11.80;100.00
24825;BME280;12910;57.690;11.974;2022-11-13T01:19:32;102299.16;;;11.79;100.00
24825;BME280;12910;57.690;11.974;2022-11-13T01:21:58;102291.53;;;11.81;100.00
24825;BME280;12910;57.690;11.974;2022-11-13T01:24:23;102285.47;;;11.79;100.00
24825;BME280;12910;57.690;11.974;2022-11-13T01:26:48;102279.38;;;11.77;100.00
24825;BME280;12910;57.690;11.974;2022-11-13T01:29:14;102288.09;;;11.80;100.00
24825;BME280;12910;57.690;11.974;2022-11-13T01:31:39;102287.22;;;11.80;100.00
24825;BME280;12910;57.690;11.974;2022-11-13T01:34:04;102282.94;;;11.80;100.00
24825;BME280;12910;57.690;11.974;2022-11-13T01:36:30;102286.31;;;11.79;100.00
24825;BME280;12910;57.690;11.974;2022-11-13T01:38:55;102282.09;;;11.80;100.00
24825;BME280;12910;57.690;11.974;2022-11-13T01:41:29;102278.53;;;11.76;100.00
24825;BME280;12910;57.690;11.974;2022-11-13T01:43:56;102289.97;;;11.84;100.00
24825;BME280;12910;57.690;11.974;2022-11-13T01:51:37;102283.03;;;11.82;100.00
24825;BME280;12910;57.690;11.974;2022-11-13T01:54:07;102278.63;;;11.79;100.00
24825;BME280;12910;57.690;11.974;2022-11-13T01:56:34;102277.81;;;11.80;100.00
24825;BME280;12910;57.690;11.974;2022-11-13T01:59:13;102274.28;;;11.78;100.00
24825;BME280;12910;57.690;11.974;2022-11-13T02:01:39;102265.78;;;11.79;100.00
24825;BME280;12910;57.690;11.974;2022-11-13T02:04:04;102253.56;;;11.74;100.00
24825;BME280;12910;57.690;11.974;2022-11-13T02:06:35;102261.41;;;11.77;100.00
24825;BME280;12910;57.690;11.974;2022-11-13T02:09:04;102264.75;;;11.74;100.00
24825;BME280;12910;57.690;11.974;2022-11-13T02:11:29;102270.00;;;11.77;100.00
24825;BME280;12910;57.690;11.974;2022-11-13T02:13:55;102264.09;;;11.80;100.00
24825;BME280;12910;57.690;11.974;2022-11-13T02:16:21;102271.94;;;11.83;100.00
24825;BME280;12910;57.690;11.974;2022-11-13T02:18:47;102259.94;;;11.83;100.00
24825;BME280;12910;57.690;11.974;2022-11-13T02:26:20;102259.72;;;11.77;100.00
24825;BME280;12910;57.690;11.974;2022-11-13T02:28:48;102261.56;;;11.81;100.00
24825;BME280;12910;57.690;11.974;2022-11-13T02:31:14;102257.06;;;11.76;100.00
24825;BME280;12910;57.690;11.974;2022-11-13T02:33:39;102266.78;;;11.83;100.00
24825;BME280;12910;57.690;11.974;2022-11-13T02:36:07;102265.94;;;11.84;100.00
24825;BME280;12910;57.690;11.974;2022-11-13T02:38:34;102253.81;;;11.80;100.00
24825;BME280;12910;57.690;11.974;2022-11-13T02:41:00;102259.09;;;11.83;100.00
24825;BME280;12910;57.690;11.974;2022-11-13T02:43:26;102254.59;;;11.77;100.00
24825;BME280;12910;57.690;11.974;2022-11-13T02:45:51;102245.03;;;11.75;100.00
24825;BME280;12910;57.690;11.974;2022-11-13T02:48:17;102251.28;;;11.81;100.00
24825;BME280;12910;57.690;11.974;2022-11-13T02:50:42;102240.91;;;11.78;100.00
24825;BME280;12910;57.690;11.974;2022-11-13T02:53:08;102251.28;;;11.81;100.00
24825;BME280;12910;57.690;11.974;2022-11-13T02:55:34;102241.75;;;11.77;100.00
24825;BME280;12910;57.690;11.974;2022-11-13T02:57:59;102252.94;;;11.79;100.00
24825;BME280;12910;57.690;11.974;2022-11-13T03:00:25;102262.34;;;11.79;100.00
24825;BME280;12910;57.690;11.974;2022-11-13T03:02:51;102257.97;;;11.76;100.00
24825;BME280;12910;57.690;11.974;2022-11-13T03:05:17;102268.34;;;11.79;100.00
24825;BME280;12910;57.690;11.974;2022-11-13T03:07:42;102266.59;;;11.78;100.00
24825;BME280;12910;57.690;11.974;2022-11-13T03:10:09;102254.47;;;11.74;100.00
24825;BME280;12910;57.690;11.974;2022-11-13T03:12:34;102247.63;;;11.75;100.00
24825;BME280;12910;57.690;11.974;2022-11-13T03:15:00;102256.44;;;11.81;100.00
24825;BME280;12910;57.690;11.974;2022-11-13T03:17:25;102256.25;;;11.77;100.00
24825;BME280;12910;57.690;11.974;2022-11-13T03:19:51;102263.47;;;11.85;100.00
24825;BME280;12910;57.690;11.974;2022-11-13T03:22:16;102252.94;;;11.79;100.00
24825;BME280;12910;57.690;11.974;2022-11-13T03:24:41;102258.88;;;11.78;100.00
24825;BME280;12910;57.690;11.974;2022-11-13T03:27:07;102254.59;;;11.77;100.00
24825;BME280;12910;57.690;11.974;2022-11-13T03:29:32;102254.63;;;11.79;100.00
24825;BME280;12910;57.690;11.974;2022-11-13T03:31:58;102256.22;;;11.75;100.00
24825;BME280;12910;57.690;11.974;2022-11-13T03:34:23;102251.09;;;11.75;100.00
24825;BME280;12910;57.690;11.974;2022-11-13T03:36:49;102260.63;;;11.79;100.00
24825;BME280;12910;57.690;11.974;2022-11-13T03:39:14;102256.38;;;11.80;100.00
24825;BME280;12910;57.690;11.974;2022-11-13T03:41:39;102250.31;;;11.78;100.00
24825;BME280;12910;57.690;11.974;2022-11-13T03:44:06;102252.75;;;11.75;100.00
24825;BME280;12910;57.690;11.974;2022-11-13T03:46:31;102240.00;;;11.76;100.00
24825;BME280;12910;57.690;11.974;2022-11-13T03:48:57;102238.88;;;11.69;100.00
24825;BME280;12910;57.690;11.974;2022-11-13T03:51:22;102231.03;;;11.66;100.00
24825;BME280;12910;57.690;11.974;2022-11-13T03:53:47;102243.41;;;11.77;100.00
24825;BME280;12910;57.690;11.974;2022-11-13T03:56:13;102245.94;;;11.75;100.00
24825;BME280;12910;57.690;11.974;2022-11-13T03:58:38;102239.03;;;11.74;100.00
24825;BME280;12910;57.690;11.974;2022-11-13T04:01:04;102244.88;;;11.70;100.00
24825;BME280;12910;57.690;11.974;2022-11-13T04:03:29;102244.88;;;11.70;100.00
24825;BME280;12910;57.690;11.974;2022-11-13T04:05:54;102246.75;;;11.74;100.00
24825;BME280;12910;57.690;11.974;2022-11-13T04:08:20;102251.00;;;11.74;100.00
24825;BME280;12910;57.690;11.974;2022-11-13T04:10:45;102245.94;;;11.75;100.00
24825;BME280;12910;57.690;11.974;2022-11-13T04:13:11;102254.59;;;11.77;100.00
24825;BME280;12910;57.690;11.974;2022-11-13T04:15:37;102245.22;;;11.79;100.00
24825;BME280;12910;57.690;11.974;2022-11-13T04:18:02;102238.09;;;11.72;100.00
24825;BME280;12910;57.690;11.974;2022-11-13T04:20:28;102247.88;;;11.81;100.00
24825;BME280;12910;57.690;11.974;2022-11-13T04:22:57;102249.53;;;11.80;100.00
24825;BME280;12910;57.690;11.974;2022-11-13T04:25:23;102248.69;;;11.80;100.00
24825;BME280;12910;57.690;11.974;2022-11-13T04:27:49;102238.41;;;11.80;100.00
24825;BME280;12910;57.690;11.974;2022-11-13T04:30:16;102242.59;;;11.78;100.00
24825;BME280;12910;57.690;11.974;2022-11-13T04:32:41;102236.44;;;11.73;100.00
24825;BME280;12910;57.690;11.974;2022-11-13T04:35:07;102252.06;;;11.79;100.00
24825;BME280;12910;57.690;11.974;2022-11-13T04:37:33;102244.00;;;11.69;100.00
24825;BME280;12910;57.690;11.974;2022-11-13T04:39:58;102254.59;;;11.77;100.00
24825;BME280;12910;57.690;11.974;2022-11-13T04:42:23;102233.69;;;11.68;100.00
24825;BME280;12910;57.690;11.974;2022-11-13T04:45:08;102245.78;;;11.71;100.00
24825;BME280;12910;57.690;11.974;2022-11-13T04:47:33;102258.03;;;11.78;100.00
24825;BME280;12910;57.690;11.974;2022-11-13T04:49:59;102252.72;;;11.73;100.00
24825;BME280;12910;57.690;11.974;2022-11-13T04:52:24;102258.97;;;11.80;100.00
24825;BME280;12910;57.690;11.974;2022-11-13T04:54:49;102262.34;;;11.79;100.00
24825;BME280;12910;57.690;11.974;2022-11-13T04:57:15;102254.47;;;11.74;100.00
24825;BME280;12910;57.690;11.974;2022-11-13T04:59:40;102250.94;;;11.72;100.00
24825;BME280;12910;57.690;11.974;2022-11-13T05:02:05;102253.56;;;11.74;100.00
24825;BME280;12910;57.690;11.974;2022-11-13T05:04:31;102234.56;;;11.68;100.00
24825;BME280;12910;57.690;11.974;2022-11-13T05:06:56;102245.78;;;11.71;100.00
24825;BME280;12910;57.690;11.974;2022-11-13T05:09:22;102257.97;;;11.76;100.00
24825;BME280;12910;57.690;11.974;2022-11-13T05:11:47;102256.22;;;11.75;100.00
24825;BME280;12910;57.690;11.974;2022-11-13T05:14:13;102258.78;;;11.75;100.00
24825;BME280;12910;57.690;11.974;2022-11-13T05:16:38;102254.59;;;11.77;100.00
24825;BME280;12910;57.690;11.974;2022-11-13T05:19:04;102253.75;;;11.78;100.00
24825;BME280;12910;57.690;11.974;2022-11-13T05:21:34;102244.22;;;11.76;100.00
24825;BME280;12910;57.690;11.974;2022-11-13T05:24:00;102241.75;;;11.77;100.00
24825;BME280;12910;57.690;11.974;2022-11-13T05:26:27;102242.56;;;11.76;100.00
24825;BME280;12910;57.690;11.974;2022-11-13T05:28:52;102243.47;;;11.78;100.00
24825;BME280;12910;57.690;11.974;2022-11-13T05:31:20;102247.75;;;11.78;100.00
24825;BME280;12910;57.690;11.974;2022-11-13T05:33:46;102248.59;;;11.78;100.00
24825;BME280;12910;57.690;11.974;2022-11-13T05:36:14;102252.94;;;11.79;100.00
24825;BME280;12910;57.690;11.974;2022-11-13T05:38:40;102245.13;;;11.76;100.00
24825;BME280;12910;57.690;11.974;2022-11-13T05:41:11;102248.56;;;11.77;100.00
24825;BME280;12910;57.690;11.974;2022-11-13T05:43:38;102242.38;;;11.72;100.00
24825;BME280;12910;57.690;11.974;2022-11-13T05:48:31;102242.44;;;11.73;100.00
24825;BME280;12910;57.690;11.974;2022-11-13T05:51:05;102241.31;;;11.66;100.00
24825;BME280;12910;57.690;11.974;2022-11-13T05:53:31;102232.66;;;11.64;100.00
24825;BME280;12910;57.690;11.974;2022-11-13T05:56:05;102235.19;;;11.63;100.00
24825;BME280;12910;57.690;11.974;2022-11-13T05:58:31;102230.00;;;11.61;100.00
24825;BME280;12910;57.690;11.974;2022-11-13T06:01:19;102238.69;;;11.65;100.00
24825;BME280;12910;57.690;11.974;2022-11-13T06:03:45;102233.53;;;11.63;100.00
24825;BME280;12910;57.690;11.974;2022-11-13T06:06:14;102238.69;;;11.65;100.00
24825;BME280;12910;57.690;11.974;2022-11-13T06:08:40;102242.91;;;11.63;100.00
24825;BME280;12910;57.690;11.974;2022-11-13T06:11:12;102236.00;;;11.62;100.00
24825;BME280;12910;57.690;11.974;2022-11-13T06:13:38;102241.84;;;11.58;100.00
24825;BME280;12910;57.690;11.974;2022-11-13T06:16:15;102242.91;;;11.63;100.00
24825;BME280;12910;57.690;11.974;2022-11-13T06:18:42;102245.63;;;11.67;100.00
24825;BME280;12910;57.690;11.974;2022-11-13T06:21:11;102249.91;;;11.67;100.00
24825;BME280;12910;57.690;11.974;2022-11-13T06:23:38;102248.97;;;11.65;100.00
24825;BME280;12910;57.690;11.974;2022-11-13T06:26:07;102235.06;;;11.60;100.00
24825;BME280;12910;57.690;11.974;2022-11-13T06:28:33;102247.22;;;11.64;100.00
24825;BME280;12910;57.690;11.974;2022-11-13T06:31:23;102241.22;;;11.63;100.00
24825;BME280;12910;57.690;11.974;2022-11-13T06:33:49;102219.44;;;11.53;100.00
24825;BME280;12910;57.690;11.974;2022-11-13T06:36:17;102241.09;;;11.60;100.00
24825;BME280;12910;57.690;11.974;2022-11-13T06:38:42;102241.78;;;11.56;100.00
24825;BME280;12910;57.690;11.974;2022-11-13T06:41:10;102248.03;;;11.63;100.00
24825;BME280;12910;57.690;11.974;2022-11-13T06:43:36;102245.34;;;11.60;100.00
24825;BME280;12910;57.690;11.974;2022-11-13T06:46:03;102243.53;;;11.57;100.00
24825;BME280;12910;57.690;11.974;2022-11-13T06:48:29;102245.41;;;11.61;100.00
24825;BME280;12910;57.690;11.974;2022-11-13T06:50:59;102249.50;;;11.56;100.00
24825;BME280;12910;57.690;11.974;2022-11-13T06:53:26;102265.88;;;11.60;100.00
24825;BME280;12910;57.690;11.974;2022-11-13T06:55:52;102264.03;;;11.56;100.00
24825;BME280;12910;57.690;11.974;2022-11-13T06:58:17;102254.41;;;11.50;100.00
24825;BME280;12910;57.690;11.974;2022-11-13T07:00:43;102263.97;;;11.54;100.00
24825;BME280;12910;57.690;11.974;2022-11-13T07:03:19;102262.28;;;11.54;100.00
24825;BME280;12910;57.690;11.974;2022-11-13T07:05:45;102263.28;;;11.58;100.00
24825;BME280;12910;57.690;11.974;2022-11-13T07:08:11;102253.94;;;11.60;100.00
24825;BME280;12910;57.690;11.974;2022-11-13T07:10:36;102252.22;;;11.61;100.00
24825;BME280;12910;57.690;11.974;2022-11-13T07:13:02;102244.44;;;11.58;100.00
24825;BME280;12910;57.690;11.974;2022-11-13T07:15:27;102259.25;;;11.65;100.00
24825;BME280;12910;57.690;11.974;2022-11-13T07:17:53;102261.00;;;11.66;100.00
24825;BME280;12910;57.690;11.974;2022-11-13T07:20:18;102261.88;;;11.66;100.00
24825;BME280;12910;57.690;11.974;2022-11-13T07:22:44;102264.59;;;11.71;100.00
24825;BME280;12910;57.690;11.974;2022-11-13T07:25:09;102274.88;;;11.71;100.00
24825;BME280;12910;57.690;11.974;2022-11-13T07:27:35;102272.28;;;11.69;100.00
24825;BME280;12910;57.690;11.974;2022-11-13T07:30:00;102265.97;;;11.61;100.00
24825;BME280;12910;57.690;11.974;2022-11-13T07:32:25;102267.94;;;11.68;100.00
24825;BME280;12910;57.690;11.974;2022-11-13T07:34:51;102260.03;;;11.62;100.00
24825;BME280;12910;57.690;11.974;2022-11-13T07:37:16;102257.38;;;11.61;100.00
24825;BME280;12910;57.690;11.974;2022-11-13T07:39:42;102260.88;;;11.63;100.00
24825;BME280;12910;57.690;11.974;2022-11-13T07:42:07;102260.03;;;11.62;100.00
24825;BME280;12910;57.690;11.974;2022-11-13T07:44:32;102257.16;;;11.54;100.00
24825;BME280;12910;57.690;11.974;2022-11-13T07:46:58;102268.63;;;11.64;100.00
24825;BME280;12910;57.690;11.974;2022-11-13T07:49:24;102272.91;;;11.64;100.00
24825;BME280;12910;57.690;11.974;2022-11-13T07:51:49;102270.28;;;11.62;100.00
24825;BME280;12910;57.690;11.974;2022-11-13T07:54:15;102272.91;;;11.64;100.00
24825;BME280;12910;57.690;11.974;2022-11-13T07:56:40;102267.63;;;11.61;100.00
24825;BME280;12910;57.690;11.974;2022-11-13T07:59:06;102272.13;;;11.66;100.00
24825;BME280;12910;57.690;11.974;2022-11-13T08:01:31;102265.44;;;11.70;100.00
24825;BME280;12910;57.690;11.974;2022-11-13T08:03:57;102262.97;;;11.73;100.00
24825;BME280;12910;57.690;11.974;2022-11-13T08:06:22;102270.00;;;11.77;100.00
24825;BME280;12910;57.690;11.974;2022-11-13T08:08:48;102257.97;;;11.76;100.00
24825;BME280;12910;57.690;11.974;2022-11-13T08:11:14;102262.38;;;11.80;100.00
24825;BME280;12910;57.690;11.974;2022-11-13T08:13:39;102266.72;;;11.81;100.00
24825;BME280;12910;57.690;11.974;2022-11-13T08:16:05;102240.38;;;11.64;100.00
24825;BME280;12910;57.690;11.974;2022-11-13T08:18:31;102251.84;;;11.73;100.00
24825;BME280;12910;57.690;11.974;2022-11-13T08:20:59;102261.44;;;11.78;100.00
24825;BME280;12910;57.690;11.974;2022-11-13T08:23:25;102267.59;;;11.82;100.00
24825;BME280;12910;57.690;11.974;2022-11-13T08:25:50;102267.44;;;11.77;100.00
24825;BME280;12910;57.690;11.974;2022-11-13T08:28:16;102256.91;;;11.71;100.00
24825;BME280;12910;57.690;11.974;2022-11-13T08:30:42;102270.06;;;11.79;100.00
24825;BME280;12910;57.690;11.974;2022-11-13T08:33:08;102278.63;;;11.79;100.00
24825;BME280;12910;57.690;11.974;2022-11-13T08:35:33;102275.94;;;11.76;100.00
24825;BME280;12910;57.690;11.974;2022-11-13T08:38:03;102278.56;;;11.78;100.00
24825;BME280;12910;57.690;11.974;2022-11-13T08:40:30;102283.75;;;11.79;100.00
24825;BME280;12910;57.690;11.974;2022-11-13T08:42:59;102279.56;;;11.81;100.00
24825;BME280;12910;57.690;11.974;2022-11-13T08:45:26;102286.44;;;11.82;100.00
24825;BME280;12910;57.690;11.974;2022-11-13T08:47:51;102290.78;;;11.83;100.00
24825;BME280;12910;57.690;11.974;2022-11-13T08:50:17;102288.91;;;11.79;100.00
24825;BME280;12910;57.690;11.974;2022-11-13T08:52:42;102275.13;;;11.77;100.00
24825;BME280;12910;57.690;11.974;2022-11-13T08:55:08;102290.66;;;11.80;100.00
24825;BME280;12910;57.690;11.974;2022-11-13T08:57:33;102280.28;;;11.77;100.00
24825;BME280;12910;57.690;11.974;2022-11-13T08:59:58;102280.16;;;11.74;100.00
24825;BME280;12910;57.690;11.974;2022-11-13T09:02:24;102287.13;;;11.78;100.00
24825;BME280;12910;57.690;11.974;2022-11-13T09:04:49;102282.91;;;11.79;100.00
24825;BME280;12910;57.690;11.974;2022-11-13T09:07:15;102293.94;;;11.76;100.00
24825;BME280;12910;57.690;11.974;2022-11-13T09:09:40;102292.41;;;11.81;100.00
24825;BME280;12910;57.690;11.974;2022-11-13T09:12:06;102290.66;;;11.80;100.00
24825;BME280;12910;57.690;11.974;2022-11-13T09:14:31;102291.63;;;11.84;100.00
24825;BME280;12910;57.690;11.974;2022-11-13T09:16:57;102264.59;;;11.71;100.00
24825;BME280;12910;57.690;11.974;2022-11-13T09:19:22;102292.53;;;11.84;100.00
24825;BME280;12910;57.690;11.974;2022-11-13T09:21:47;102295.09;;;11.84;100.00
24825;BME280;12910;57.690;11.974;2022-11-13T09:24:13;102299.31;;;11.82;100.00
24825;BME280;12910;57.690;11.974;2022-11-13T09:26:38;102304.66;;;11.89;100.00
24825;BME280;12910;57.690;11.974;2022-11-13T09:29:04;102300.38;;;11.88;100.00
24825;BME280;12910;57.690;11.974;2022-11-13T09:31:30;102300.53;;;11.92;100.00
24825;BME280;12910;57.690;11.974;2022-11-13T09:33:55;102300.72;;;11.97;100.00
24825;BME280;12910;57.690;11.974;2022-11-13T09:36:20;102289.31;;;11.90;100.00
24825;BME280;12910;57.690;11.974;2022-11-13T09:38:46;102300.63;;;11.95;100.00
24825;BME280;12910;57.690;11.974;2022-11-13T09:41:45;102305.97;;;12.00;100.00
24825;BME280;12910;57.690;11.974;2022-11-13T09:44:16;102309.50;;;12.02;100.00
24825;BME280;12910;57.690;11.974;2022-11-13T09:47:01;102305.97;;;12.00;100.00
24825;BME280;12910;57.690;11.974;2022-11-13T09:49:31;102312.09;;;12.04;100.00
24825;BME280;12910;57.690;11.974;2022-11-13T09:52:19;102315.41;;;11.99;100.00
24825;BME280;12910;57.690;11.974;2022-11-13T09:54:45;102317.63;;;11.92;100.00
24825;BME280;12910;57.690;11.974;2022-11-13T10:00:02;102313.41;;;11.92;100.00
24825;BME280;12910;57.690;11.974;2022-11-13T10:13:02;102321.31;;;11.76;100.00
24825;BME280;12910;57.690;11.974;2022-11-13T10:15:29;102320.25;;;11.71;100.00
24825;BME280;12910;57.690;11.974;2022-11-13T10:20:23;102317.09;;;11.78;100.00
24825;BME280;12910;57.690;11.974;2022-11-13T10:22:52;102316.16;;;11.76;100.00
24825;BME280;12910;57.690;11.974;2022-11-13T10:25:26;102314.22;;;11.70;100.00
24825;BME280;12910;57.690;11.974;2022-11-13T10:27:55;102318.72;;;11.76;100.00
24825;BME280;12910;57.690;11.974;2022-11-13T10:30:22;102318.72;;;11.76;100.00
24825;BME280;12910;57.690;11.974;2022-11-13T10:32:48;102319.72;;;11.79;100.00
24825;BME280;12910;57.690;11.974;2022-11-13T10:40:46;102315.78;;;11.88;100.00
24825;BME280;12910;57.690;11.974;2022-11-13T10:45:39;102313.31;;;11.91;100.00
24825;BME280;12910;57.690;11.974;2022-11-13T10:48:05;102301.19;;;11.87;100.00
24825;BME280;12910;57.690;11.974;2022-11-13T10:50:31;102319.00;;;11.82;100.00
24825;BME280;12910;57.690;11.974;2022-11-13T10:52:57;102317.28;;;11.82;100.00
24825;BME280;12910;57.690;11.974;2022-11-13T10:55:38;102312.28;;;11.85;100.00
24825;BME280;12910;57.690;11.974;2022-11-13T10:58:15;102318.34;;;11.88;100.00
24825;BME280;12910;57.690;11.974;2022-11-13T11:00:41;102305.56;;;11.89;100.00
24825;BME280;12910;57.690;11.974;2022-11-13T11:03:27;102304.78;;;11.92;100.00
24825;BME280;12910;57.690;11.974;2022-11-13T11:05:59;102290.09;;;11.88;100.00
24825;BME280;12910;57.690;11.974;2022-11-13T11:08:32;102313.31;;;11.91;100.00
24825;BME280;12910;57.690;11.974;2022-11-13T11:13:42;102307.53;;;11.96;100.00
24825;BME280;12910;57.690;11.974;2022-11-13T11:16:11;102295.22;;;11.88;100.00
24825;BME280;12910;57.690;11.974;2022-11-13T11:18:42;102300.53;;;11.92;100.00
24825;BME280;12910;57.690;11.974;2022-11-13T11:21:12;102303.41;;;12.00;100.00
24825;BME280;12910;57.690;11.974;2022-11-13T11:26:24;102308.91;;;12.09;100.00
24825;BME280;12910;57.690;11.974;2022-11-13T11:29:15;102308.22;;;12.13;100.00
24825;BME280;12910;57.690;11.974;2022-11-13T11:31:52;102309.16;;;12.15;100.00
24825;BME280;12910;57.690;11.974;2022-11-13T11:34:34;102305.69;;;12.15;100.00
24825;BME280;12910;57.690;11.974;2022-11-13T11:42:39;102297.09;;;12.14;100.00
24825;BME280;12910;57.690;11.974;2022-11-13T11:45:26;102304.09;;;12.19;100.00
24825;BME280;12910;57.690;11.974;2022-11-13T11:47:54;102292.00;;;12.16;100.00
24825;BME280;12910;57.690;11.974;2022-11-13T11:50:47;102303.22;;;12.18;100.00
24825;BME280;12910;57.690;11.974;2022-11-13T11:56:11;102293.75;;;12.17;100.00
24825;BME280;12910;57.690;11.974;2022-11-13T12:09:39;102288.03;;;12.24;100.00
24825;BME280;12910;57.690;11.974;2022-11-13T12:18:23;102283.97;;;12.31;100.00
24825;BME280;12910;57.690;11.974;2022-11-13T12:27:23;102274.84;;;12.39;100.00
24825;BME280;12910;57.690;11.974;2022-11-13T12:35:17;102260.34;;;12.41;100.00
24825;BME280;12910;57.690;11.974;2022-11-13T12:37:57;102256.84;;;12.39;100.00
24825;BME280;12910;57.690;11.974;2022-11-13T12:40:32;102262.75;;;12.37;100.00
24825;BME280;12910;57.690;11.974;2022-11-13T12:50:34;102243.38;;;12.22;100.00
24825;BME280;12910;57.690;11.974;2022-11-13T12:53:03;102233.66;;;12.13;100.00
24825;BME280;12910;57.690;11.974;2022-11-13T12:55:35;102234.47;;;12.12;100.00
24825;BME280;12910;57.690;11.974;2022-11-13T12:58:21;102215.34;;;12.04;100.00
24825;BME280;12910;57.690;11.974;2022-11-13T13:17:35;102225.16;;;11.93;100.00
24825;BME280;12910;57.690;11.974;2022-11-13T13:20:05;102217.28;;;11.89;100.00
24825;BME280;12910;57.690;11.974;2022-11-13T13:22:33;102225.09;;;11.90;100.00
24825;BME280;12910;57.690;11.974;2022-11-13T13:25:03;102222.44;;;11.89;100.00
24825;BME280;12910;57.690;11.974;2022-11-13T13:27:35;102228.47;;;11.89;100.00
24825;BME280;12910;57.690;11.974;2022-11-13T13:30:14;102210.19;;;11.81;100.00
24825;BME280;12910;57.690;11.974;2022-11-13T13:32:50;102205.88;;;11.80;100.00
24825;BME280;12910;57.690;11.974;2022-11-13T13:35:25;102211.13;;;11.83;100.00
24825;BME280;12910;57.690;11.974;2022-11-13T13:45:49;102197.94;;;11.74;100.00
24825;BME280;12910;57.690;11.974;2022-11-13T13:48:22;102197.00;;;11.72;100.00
24825;BME280;12910;57.690;11.974;2022-11-13T13:50:49;102203.09;;;11.74;100.00
24825;BME280;12910;57.690;11.974;2022-11-13T13:53:18;102209.09;;;11.75;100.00
24825;BME280;12910;57.690;11.974;2022-11-13T13:55:48;102204.84;;;11.75;100.00
24825;BME280;12910;57.690;11.974;2022-11-13T13:58:18;102212.53;;;11.75;100.00
24825;BME280;12910;57.690;11.974;2022-11-13T14:01:03;102204.72;;;11.72;100.00
24825;BME280;12910;57.690;11.974;2022-11-13T14:03:29;102200.34;;;11.69;100.00
24825;BME280;12910;57.690;11.974;2022-11-13T14:06:07;102211.59;;;11.73;100.00
24825;BME280;12910;57.690;11.974;2022-11-13T14:08:32;102203.84;;;11.72;100.00
24825;BME280;12910;57.690;11.974;2022-11-13T14:11:02;102209.00;;;11.72;100.00
24825;BME280;12910;57.690;11.974;2022-11-13T14:13:28;102201.19;;;11.70;100.00
24825;BME280;12910;57.690;11.974;2022-11-13T14:16:04;102209.03;;;11.73;100.00
24825;BME280;12910;57.690;11.974;2022-11-13T14:18:32;102211.56;;;11.72;100.00
24825;BME280;12910;57.690;11.974;2022-11-13T14:21:00;102192.34;;;11.62;100.00
24825;BME280;12910;57.690;11.974;2022-11-13T14:23:27;102209.03;;;11.73;100.00
24825;BME280;12910;57.690;11.974;2022-11-13T14:25:54;102202.97;;;11.71;100.00